Time;durP1;ratioP1;P1;durP2;ratioP2;P2;SDS_P1;SDS_P2;PMS_P1;PMS_P2;Temp;Humidity;BMP_temperature;BMP_pressure;BME280_temperature;BME280_humidity;BME280_pressure;Samples;Min_cycle;Max_cycle;Signal;HPM_P1;HPM_P2
2023/12/17 00:01:15;;;;;;;;;67.67;54.33;;;;;16.49;42.69;103641.81;5061805;28;45466;-75
2023/12/17 00:03:41;;;;;;;;;71.33;56.00;;;;;16.48;42.62;103634.59;5058798;28;45396;-76
2023/12/17 00:06:06;;;;;;;;;70.33;56.00;;;;;16.57;42.38;103642.50;5077732;28;46018;-76
2023/12/17 00:08:32;;;;;;;;;72.67;58.00;;;;;16.64;42.49;103641.47;5077809;28;45389;-76
2023/12/17 00:10:57;;;;;;;;;68.00;56.00;;;;;16.60;42.30;103639.69;5077596;28;45331;-76
2023/12/17 00:13:24;;;;;;;;;75.33;58.33;;;;;16.32;42.25;103604.31;5077428;28;45506;-75
2023/12/17 00:15:50;;;;;;;;;73.00;58.33;;;;;16.46;42.50;103625.63;5077404;28;46417;-76
2023/12/17 00:18:15;;;;;;;;;73.67;60.33;;;;;16.17;42.30;103610.06;5077210;28;45292;-79
2023/12/17 00:20:41;;;;;;;;;69.00;56.33;;;;;16.27;42.57;103633.28;5077423;28;45256;-76
2023/12/17 00:23:06;;;;;;;;;70.33;57.00;;;;;16.21;42.38;103634.34;5077327;28;45255;-77
2023/12/17 00:25:32;;;;;;;;;72.00;58.33;;;;;16.20;42.40;103642.50;5077552;28;46161;-77
2023/12/17 00:27:57;;;;;;;;;73.33;58.33;;;;;16.11;42.29;103634.59;5076975;28;48613;-75
2023/12/17 05:30:22;;;;;;;;;25.75;25.25;;;;;12.99;43.88;103521.16;5060536;27;46723;-74
2023/12/17 05:32:48;;;;;;;;;27.50;26.50;;;;;13.05;44.01;103536.34;5056122;28;45371;-75
2023/12/17 05:35:13;;;;;;;;;30.25;27.25;;;;;12.98;44.18;103540.03;5055850;28;45339;-76
2023/12/17 05:37:39;;;;;;;;;35.00;24.25;;;;;12.86;44.18;103522.19;5055236;28;50560;-76
2023/12/17 05:40:06;;;;;;;;;25.25;24.75;;;;;12.88;44.10;103531.16;5055809;28;45319;-75
2023/12/17 05:42:32;;;;;;;;;33.25;29.25;;;;;12.91;43.94;103541.91;5037410;28;45319;-74
2023/12/17 05:44:57;;;;;;;;;29.25;26.75;;;;;12.81;44.22;103538.41;5037806;28;45328;-77
2023/12/17 05:47:23;;;;;;;;;24.50;23.00;;;;;12.80;44.11;103546.50;5055364;28;45623;-77
2023/12/17 05:49:48;;;;;;;;;22.50;19.00;;;;;12.73;44.55;103531.34;5055659;28;45349;-77
2023/12/17 05:52:13;;;;;;;;;19.00;19.00;;;;;12.78;44.61;103537.53;5059953;28;61594;-76
2023/12/17 05:54:39;;;;;;;;;29.50;24.00;;;;;12.68;44.67;103541.22;5037643;28;45349;-76
2023/12/17 05:57:04;;;;;;;;;24.75;24.75;;;;;12.58;44.79;103535.09;5054862;28;52393;-76
2023/12/17 05:59:30;;;;;;;;;27.75;24.00;;;;;12.56;44.82;103519.84;5058487;28;45470;-77
2023/12/17 06:01:55;;;;;;;;;27.75;27.75;;;;;12.65;44.45;103535.91;5055335;28;46300;-75
2023/12/17 06:04:20;;;;;;;;;22.00;20.25;;;;;12.67;44.44;103540.38;5056320;28;45401;-76
2023/12/17 06:06:46;;;;;;;;;23.75;22.50;;;;;12.66;44.76;103543.06;5056741;28;48450;-80
2023/12/17 06:09:12;;;;;;;;;22.00;22.00;;;;;12.54;44.48;103524.34;5037057;28;48047;-75
2023/12/17 06:11:37;;;;;;;;;27.75;24.25;;;;;12.69;44.48;103546.59;5057289;28;45386;-76
2023/12/17 06:14:03;;;;;;;;;27.75;22.25;;;;;12.67;44.03;103536.78;5054175;28;46101;-77
2023/12/17 06:16:28;;;;;;;;;20.75;17.00;;;;;12.69;44.34;103530.47;5054894;28;45266;-77
2023/12/17 06:18:53;;;;;;;;;25.75;23.25;;;;;12.59;44.61;103542.22;5055076;28;45311;-77
2023/12/17 06:21:23;;;;;;;;;25.25;19.00;;;;;12.58;44.60;103544.94;5058560;28;45363;-80
2023/12/17 06:23:50;;;;;;;;;15.50;14.00;;;;;12.47;44.35;103521.72;5063722;28;45422;-76
2023/12/17 06:26:16;;;;;;;;;18.50;14.50;;;;;12.55;44.82;103537.78;5055264;28;45249;-75
2023/12/17 06:28:43;;;;;;;;;20.00;19.25;;;;;12.43;44.74;103528.03;5054971;28;46120;-76
2023/12/17 06:31:08;;;;;;;;;23.00;20.25;;;;;12.47;44.50;103529.78;5054606;28;45316;-74
2023/12/17 06:33:33;;;;;;;;;20.00;17.50;;;;;12.48;44.79;103531.59;5054627;28;49114;-75
2023/12/17 06:35:59;;;;;;;;;20.75;18.00;;;;;12.51;44.83;103536.00;5054340;28;45603;-76
2023/12/17 06:38:24;;;;;;;;;22.50;21.25;;;;;12.59;44.83;103534.13;5054085;28;63552;-74
2023/12/17 06:40:49;;;;;;;;;25.75;22.00;;;;;12.49;44.48;103536.06;5054366;28;51666;-74
2023/12/17 06:43:15;;;;;;;;;22.00;19.75;;;;;12.51;44.81;103536.91;5055003;28;45272;-74
2023/12/17 06:45:40;;;;;;;;;30.50;24.00;;;;;12.54;44.60;103527.03;5053730;28;45540;-73
2023/12/17 06:48:05;;;;;;;;;30.50;23.75;;;;;12.61;44.75;103535.03;5052200;28;45394;-75
2023/12/17 06:50:32;;;;;;;;;28.25;20.75;;;;;12.63;44.47;103533.22;5051735;28;45937;-74
2023/12/17 06:52:57;;;;;;;;;23.25;23.00;;;;;12.64;44.94;103526.94;5057507;28;57168;-74
2023/12/17 06:55:22;;;;;;;;;28.25;23.00;;;;;12.75;44.83;103526.84;5051959;28;45538;-75
2023/12/17 06:57:48;;;;;;;;;23.25;22.00;;;;;12.85;44.48;103531.19;5052223;28;45858;-74
2023/12/17 07:00:15;;;;;;;;;25.50;22.50;;;;;12.82;44.37;103528.53;5051853;28;45479;-74
2023/12/17 07:02:41;;;;;;;;;25.50;22.50;;;;;12.85;44.05;103531.19;5053333;28;45337;-74
2023/12/17 07:05:08;;;;;;;;;30.25;26.00;;;;;12.88;44.21;103534.75;5054343;28;46103;-74
2023/12/17 07:07:34;;;;;;;;;23.00;19.50;;;;;12.84;44.42;103542.88;5053982;28;46719;-75
2023/12/17 07:09:59;;;;;;;;;25.50;24.25;;;;;12.74;44.36;103542.09;5053078;28;45224;-74
2023/12/17 07:12:24;;;;;;;;;26.00;21.00;;;;;12.80;44.69;103531.25;5054535;28;45307;-75
2023/12/17 07:14:50;;;;;;;;;19.75;19.75;;;;;12.83;44.58;103535.72;5054043;28;52460;-74
2023/12/17 07:17:15;;;;;;;;;24.25;23.25;;;;;12.87;44.48;103537.44;5053977;28;46009;-74
2023/12/17 07:19:40;;;;;;;;;15.00;14.00;;;;;12.77;44.17;103542.03;5053964;28;45233;-75
2023/12/17 07:22:06;;;;;;;;;18.25;18.25;;;;;12.75;44.76;103524.13;5054752;28;45441;-75
2023/12/17 07:24:31;;;;;;;;;20.75;20.25;;;;;12.75;44.58;103540.28;5054802;28;45394;-74
2023/12/17 07:26:56;;;;;;;;;24.00;21.00;;;;;12.66;45.13;103535.00;5053860;28;55980;-76
2023/12/17 07:29:22;;;;;;;;;25.25;22.50;;;;;12.61;44.69;103526.06;5053757;28;52954;-75
2023/12/17 07:31:47;;;;;;;;;30.25;25.00;;;;;12.58;44.97;103518.94;5053939;28;45528;-74
2023/12/17 07:34:13;;;;;;;;;23.75;23.25;;;;;12.58;44.83;103513.56;5053808;28;45649;-81
2023/12/17 07:36:38;;;;;;;;;23.50;23.25;;;;;12.48;45.41;103534.28;5064385;28;45982;-74
2023/12/17 07:39:04;;;;;;;;;23.00;20.50;;;;;12.48;45.50;103525.31;5057664;28;45283;-75
2023/12/17 07:41:30;;;;;;;;;33.00;27.00;;;;;12.41;45.15;103502.97;5054798;28;45379;-76
2023/12/17 07:43:56;;;;;;;;;22.75;22.75;;;;;12.56;45.19;103522.53;5061726;28;45517;-76
2023/12/17 07:46:21;;;;;;;;;20.25;20.25;;;;;12.57;45.11;103521.63;5060012;28;45987;-72
2023/12/17 07:48:46;;;;;;;;;18.25;18.25;;;;;12.56;45.04;103520.75;5057475;28;45406;-73
2023/12/17 07:51:12;;;;;;;;;24.50;24.00;;;;;12.33;45.16;103486.00;5059443;28;45394;-73
2023/12/17 07:53:37;;;;;;;;;22.50;18.00;;;;;12.60;45.03;103514.41;5056740;28;45759;-74
2023/12/17 07:56:03;;;;;;;;;25.25;21.00;;;;;12.51;45.01;103503.72;5064301;28;45310;-75
2023/12/17 07:58:31;;;;;;;;;18.25;16.25;;;;;12.57;45.43;103527.91;5053488;28;45324;-72
2023/12/17 08:00:56;;;;;;;;;11.00;7.50;;;;;12.58;44.98;103523.41;5034917;28;45689;-75
2023/12/17 08:03:23;;;;;;;;;24.00;18.75;;;;;12.50;45.04;103524.34;5065366;28;45672;-73
2023/12/17 08:05:48;;;;;;;;;20.50;18.50;;;;;12.49;44.98;103517.22;5053486;28;45332;-74
2023/12/17 08:08:14;;;;;;;;;24.25;20.50;;;;;12.55;45.36;103520.75;5052217;28;60469;-74
2023/12/17 08:10:39;;;;;;;;;29.00;26.50;;;;;12.44;45.41;103521.75;5052907;28;45409;-74
2023/12/17 08:13:04;;;;;;;;;20.25;19.00;;;;;12.47;45.60;103521.72;5053158;28;45587;-73
2023/12/17 08:15:30;;;;;;;;;20.50;17.50;;;;;12.50;45.24;103512.72;5053248;28;53046;-74
2023/12/17 08:17:55;;;;;;;;;22.25;19.75;;;;;12.54;44.92;103517.16;5052904;28;50932;-73
2023/12/17 08:20:20;;;;;;;;;23.75;22.75;;;;;12.55;45.17;103518.94;5052744;28;58039;-74
2023/12/17 08:22:45;;;;;;;;;25.75;22.00;;;;;12.58;45.33;103510.84;5055921;28;45307;-74
2023/12/17 08:25:11;;;;;;;;;30.25;22.25;;;;;12.60;45.39;103533.25;5038681;28;46119;-72
2023/12/17 08:27:36;;;;;;;;;20.25;17.00;;;;;12.52;45.28;103524.34;5056891;28;45292;-73
2023/12/17 08:30:02;;;;;;;;;25.00;21.50;;;;;12.58;45.55;103518.03;5057121;28;45541;-74
2023/12/17 08:32:31;;;;;;;;;29.00;22.25;;;;;12.61;45.55;103529.66;5056428;28;45555;-75
2023/12/17 08:34:59;;;;;;;;;18.25;18.00;;;;;12.64;45.63;103523.34;5056893;28;46284;-74
2023/12/17 08:37:26;;;;;;;;;29.00;21.25;;;;;12.63;45.51;103514.38;5056511;28;45410;-73
2023/12/17 08:39:54;;;;;;;;;30.50;25.00;;;;;12.64;45.42;103521.56;5056816;28;45245;-73
2023/12/17 08:42:20;;;;;;;;;20.00;20.00;;;;;12.69;45.22;103526.88;5056543;28;45392;-73
2023/12/17 08:44:47;;;;;;;;;34.00;28.50;;;;;12.71;45.59;103525.97;5056772;28;45691;-73
2023/12/17 08:47:12;;;;;;;;;23.50;23.50;;;;;12.78;45.29;103524.09;5056433;28;45414;-74
2023/12/17 08:49:38;;;;;;;;;24.75;23.75;;;;;12.77;45.42;103520.50;5056580;28;45409;-73
2023/12/17 08:52:04;;;;;;;;;18.50;16.50;;;;;12.67;45.68;103515.25;5062231;28;45918;-74
2023/12/17 08:54:29;;;;;;;;;29.50;26.00;;;;;12.71;45.63;103517.88;5056354;28;45413;-74
2023/12/17 08:56:55;;;;;;;;;26.75;26.75;;;;;12.76;45.30;103507.94;5056094;28;45625;-74
2023/12/17 08:59:20;;;;;;;;;29.25;27.75;;;;;12.87;45.51;103521.28;5056447;28;45594;-73
2023/12/17 09:01:45;;;;;;;;;30.25;23.75;;;;;12.90;45.20;103526.66;5055857;28;45311;-73
2023/12/17 09:04:11;;;;;;;;;29.25;26.00;;;;;12.81;45.60;103521.38;5056319;28;45919;-73
2023/12/17 09:06:46;;;;;;;;;26.75;24.50;;;;;12.92;45.69;103518.56;5055830;28;45404;-74
2023/12/17 09:09:13;;;;;;;;;33.50;27.50;;;;;13.00;45.34;103517.56;5056379;28;45255;-74
2023/12/17 09:11:38;;;;;;;;;28.00;25.50;;;;;12.89;45.19;103519.47;5056056;28;45433;-73
2023/12/17 09:14:04;;;;;;;;;24.75;20.25;;;;;12.74;45.07;103488.25;5056118;28;45212;-74
2023/12/17 09:16:30;;;;;;;;;37.75;28.25;;;;;12.98;45.00;103510.41;5056217;28;45506;-76
2023/12/17 09:18:55;;;;;;;;;27.50;24.00;;;;;12.93;44.87;103501.50;5056185;28;45259;-74
2023/12/17 09:21:21;;;;;;;;;23.75;22.00;;;;;12.93;45.28;103506.91;5055534;28;49220;-73
2023/12/17 09:23:46;;;;;;;;;23.00;22.50;;;;;12.95;45.26;103508.63;5056183;28;46295;-74
2023/12/17 09:26:11;;;;;;;;;31.00;26.75;;;;;12.85;44.94;103510.53;5055878;28;48710;-75
2023/12/17 09:28:36;;;;;;;;;28.25;24.50;;;;;12.95;45.45;103524.78;5037891;28;45367;-74
2023/12/17 09:31:02;;;;;;;;;30.25;27.00;;;;;13.06;45.18;103521.97;5055671;28;45375;-75
2023/12/17 09:33:27;;;;;;;;;23.00;20.50;;;;;13.12;44.89;103520.09;5054887;28;45811;-75
2023/12/17 09:35:53;;;;;;;;;25.50;24.50;;;;;13.17;44.56;103533.56;5055582;28;45426;-75
2023/12/17 09:38:19;;;;;;;;;28.50;25.75;;;;;13.07;44.84;103513.00;5066586;28;45485;-74
2023/12/17 09:40:47;;;;;;;;;27.25;24.75;;;;;13.11;45.15;103534.47;5058240;28;45331;-74
2023/12/17 09:43:13;;;;;;;;;24.25;24.00;;;;;13.12;44.80;103520.09;5055774;28;47255;-74
2023/12/17 09:45:41;;;;;;;;;26.75;21.50;;;;;13.09;45.23;103509.38;5055658;28;45253;-75
2023/12/17 09:48:06;;;;;;;;;18.25;15.25;;;;;13.12;44.83;103514.72;5055756;28;45414;-75
2023/12/17 09:50:32;;;;;;;;;22.00;21.25;;;;;13.15;45.43;103516.50;5055229;28;45560;-75
2023/12/17 09:52:58;;;;;;;;;25.75;25.75;;;;;13.14;44.78;103512.03;5061809;28;45370;-74
2023/12/17 09:55:24;;;;;;;;;36.50;23.00;;;;;13.23;44.95;103512.81;5055508;28;45337;-74
2023/12/17 09:57:51;;;;;;;;;30.00;26.75;;;;;13.25;45.08;103516.38;5055518;28;45599;-73
2023/12/17 10:00:16;;;;;;;;;26.75;24.50;;;;;13.33;44.24;103513.59;5055097;28;45413;-73
2023/12/17 10:02:42;;;;;;;;;32.00;30.00;;;;;13.23;44.63;103520.91;5055358;28;45429;-73
2023/12/17 10:05:08;;;;;;;;;28.50;24.50;;;;;13.24;44.81;103520.00;5055192;28;45529;-75
2023/12/17 10:07:35;;;;;;;;;25.75;23.50;;;;;13.21;44.87;103522.72;5055576;28;45456;-74
2023/12/17 10:10:00;;;;;;;;;26.75;24.25;;;;;13.27;44.79;103517.22;5055532;28;45253;-76
2023/12/17 10:12:27;;;;;;;;;23.75;22.25;;;;;13.18;44.92;103522.75;5055187;28;46006;-73
2023/12/17 10:14:52;;;;;;;;;32.75;25.00;;;;;13.17;44.89;103504.81;5055056;28;45501;-75
2023/12/17 10:17:18;;;;;;;;;28.75;24.00;;;;;13.24;44.86;103511.00;5055174;28;45370;-73
2023/12/17 10:19:50;;;;;;;;;29.00;25.50;;;;;13.29;44.55;103511.84;5055065;28;45486;-74
2023/12/17 10:22:15;;;;;;;;;28.00;24.00;;;;;13.31;44.97;103503.75;5054720;28;47064;-74
2023/12/17 10:24:41;;;;;;;;;28.50;26.75;;;;;13.33;44.72;103483.94;5055026;28;45277;-74
2023/12/17 10:27:16;;;;;;;;;30.50;24.00;;;;;13.48;44.85;103493.63;5055434;28;45367;-75
2023/12/17 10:29:42;;;;;;;;;26.50;24.00;;;;;13.54;44.39;103494.41;5037102;28;45621;-74
2023/12/17 10:32:10;;;;;;;;;29.50;26.75;;;;;13.58;44.38;103484.50;5054783;28;45332;-74
2023/12/17 10:34:38;;;;;;;;;33.00;26.25;;;;;13.56;44.15;103489.00;5054901;28;45427;-74
2023/12/17 10:37:03;;;;;;;;;27.25;25.75;;;;;13.53;44.46;103480.94;5054598;28;45414;-75
2023/12/17 10:39:32;;;;;;;;;30.00;28.25;;;;;13.67;44.40;103484.34;5054994;28;45515;-75
2023/12/17 10:41:58;;;;;;;;;31.50;25.75;;;;;13.51;43.86;103437.00;5054633;28;46332;-73
2023/12/17 10:44:27;;;;;;;;;33.00;28.50;;;;;13.65;44.02;103467.31;5036805;28;45482;-73
2023/12/17 10:46:53;;;;;;;;;33.50;25.75;;;;;13.67;44.24;103470.88;5054958;28;45353;-74
2023/12/17 10:49:19;;;;;;;;;25.75;16.75;;;;;13.78;44.12;103462.63;5036611;28;46070;-74
2023/12/17 10:51:46;;;;;;;;;30.00;27.50;;;;;13.85;44.10;103456.22;5060131;28;45557;-75
2023/12/17 10:54:12;;;;;;;;;26.75;23.25;;;;;13.90;43.77;103439.03;5054855;28;45463;-74
2023/12/17 10:56:51;;;;;;;;;24.25;22.25;;;;;14.06;43.99;103442.34;5054796;28;45453;-74
2023/12/17 10:59:27;;;;;;;;;35.00;32.50;;;;;14.11;43.52;103447.69;5054583;28;45284;-74
2023/12/17 11:01:55;;;;;;;;;30.00;30.00;;;;;14.19;43.37;103429.56;5052456;28;45257;-73
2023/12/17 11:04:22;;;;;;;;;28.75;28.75;;;;;14.21;43.45;103439.38;5054450;28;45367;-74
2023/12/17 11:06:47;;;;;;;;;32.00;29.25;;;;;14.23;43.11;103420.47;5054290;28;45397;-74
2023/12/17 11:09:15;;;;;;;;;32.00;26.25;;;;;14.37;42.89;103429.22;5054789;28;45530;-76
2023/12/17 11:11:40;;;;;;;;;26.00;26.00;;;;;14.44;42.92;103417.41;5054335;28;46106;-74
2023/12/17 11:14:05;;;;;;;;;39.75;33.75;;;;;14.52;43.09;103420.84;5054016;28;55614;-75
2023/12/17 11:16:32;;;;;;;;;33.25;29.00;;;;;14.48;42.93;103416.41;5036056;28;45336;-74
2023/12/17 11:19:00;;;;;;;;;27.75;27.75;;;;;14.60;42.85;103412.59;5054279;28;45336;-74
2023/12/17 11:21:27;;;;;;;;;34.25;33.00;;;;;14.82;42.26;103413.91;5053727;28;45320;-73
2023/12/17 11:23:52;;;;;;;;;32.00;31.50;;;;;14.87;42.43;103411.13;5054484;28;45402;-74
2023/12/17 11:26:19;;;;;;;;;36.75;31.75;;;;;14.93;42.04;103419.09;5054278;28;45258;-76
2023/12/17 11:28:45;;;;;;;;;38.50;33.25;;;;;14.92;41.96;103417.31;5054245;28;45340;-74
2023/12/17 11:31:11;;;;;;;;;33.00;32.00;;;;;14.69;41.74;103382.69;5053796;28;46937;-75
2023/12/17 11:33:38;;;;;;;;;37.00;32.75;;;;;14.70;42.12;103415.06;5054376;28;45351;-74
2023/12/17 11:36:06;;;;;;;;;38.00;35.75;;;;;14.70;42.33;103409.69;5054050;28;45481;-74
2023/12/17 11:38:32;;;;;;;;;40.75;31.75;;;;;14.81;42.06;103403.13;5053968;28;45573;-74
2023/12/17 11:40:58;;;;;;;;;46.50;34.50;;;;;14.73;42.10;103400.59;5053985;28;46455;-76
2023/12/17 11:43:25;;;;;;;;;36.00;32.75;;;;;14.74;42.31;103405.09;5066408;28;45390;-74
2023/12/17 11:45:51;;;;;;;;;37.50;34.50;;;;;14.79;42.32;103402.31;5055235;28;45498;-74
2023/12/17 11:48:18;;;;;;;;;28.75;26.50;;;;;14.74;42.55;103399.69;5054078;28;45592;-74
2023/12/17 11:50:50;;;;;;;;;34.00;30.50;;;;;14.77;42.07;103407.72;5053025;28;45375;-75
2023/12/17 11:53:17;;;;;;;;;35.00;33.00;;;;;14.83;42.53;103396.78;5059520;28;45388;-75
2023/12/17 11:55:47;;;;;;;;;37.25;33.50;;;;;14.89;41.96;103383.13;5054190;28;45341;-73
2023/12/17 11:58:21;;;;;;;;;28.75;28.75;;;;;15.02;41.93;103386.47;5057058;28;45445;-75
2023/12/17 12:01:06;;;;;;;;;32.50;29.50;;;;;15.21;41.93;103395.06;5056887;28;46183;-73
2023/12/17 12:03:32;;;;;;;;;33.50;29.25;;;;;15.29;41.55;103371.44;5057618;28;45443;-74
2023/12/17 12:05:59;;;;;;;;;41.75;36.50;;;;;15.42;41.33;103381.91;5057105;28;45246;-73
2023/12/17 12:08:26;;;;;;;;;37.00;35.00;;;;;15.49;41.56;103369.13;5056876;28;45366;-74
2023/12/17 12:10:51;;;;;;;;;38.50;33.50;;;;;15.62;41.24;103372.47;5057504;28;45364;-74
2023/12/17 12:13:17;;;;;;;;;41.00;37.75;;;;;15.67;41.05;103376.81;5056758;28;45399;-75
2023/12/17 12:15:43;;;;;;;;;34.00;33.25;;;;;15.68;41.19;103356.06;5057374;28;45212;-74
2023/12/17 12:18:23;;;;;;;;;47.00;37.25;;;;;15.80;41.52;103363.88;5056891;28;45351;-74
2023/12/17 12:20:49;;;;;;;;;40.75;35.25;;;;;15.84;41.30;103366.44;5056516;28;45431;-74
2023/12/17 12:23:15;;;;;;;;;41.25;37.75;;;;;15.92;40.95;103360.84;5057188;28;45461;-74
2023/12/17 12:25:41;;;;;;;;;48.25;38.25;;;;;15.97;41.07;103355.31;5056910;28;45322;-75
2023/12/17 12:28:07;;;;;;;;;38.25;36.25;;;;;15.99;40.86;103343.50;5059009;28;45540;-73
2023/12/17 12:30:33;;;;;;;;;44.00;39.50;;;;;16.15;40.81;103360.25;5059121;28;45363;-73
2023/12/17 12:33:12;;;;;;;;;50.00;41.75;;;;;16.12;40.50;103353.09;5059235;28;45462;-71
2023/12/17 12:35:41;;;;;;;;;43.25;37.00;;;;;16.24;40.50;103358.16;5057176;28;45525;-78
2023/12/17 12:38:20;;;;;;;;;45.75;36.50;;;;;16.28;40.23;103350.81;5038358;28;45549;-78
2023/12/17 12:40:45;;;;;;;;;43.50;39.25;;;;;16.26;40.62;103342.75;5056699;28;45991;-77
2023/12/17 12:43:11;;;;;;;;;44.50;38.00;;;;;16.31;40.15;103337.22;5056926;28;45359;-75
2023/12/17 12:45:37;;;;;;;;;44.25;38.00;;;;;16.25;40.20;103329.25;5056935;28;45374;-75
2023/12/17 12:48:02;;;;;;;;;45.75;40.25;;;;;16.15;40.25;103325.94;5057845;28;45336;-79
2023/12/17 12:50:27;;;;;;;;;38.00;36.00;;;;;16.19;40.27;103333.03;5057253;28;45772;-78
2023/12/17 12:52:53;;;;;;;;;37.00;36.00;;;;;16.23;40.17;103328.44;5061639;28;45333;-78
2023/12/17 12:55:18;;;;;;;;;45.00;37.75;;;;;16.19;40.20;103319.50;5057779;28;45323;-76
2023/12/17 12:57:45;;;;;;;;;50.25;39.00;;;;;16.01;40.41;103283.94;5056799;28;45368;-83
2023/12/17 13:00:11;;;;;;;;;46.25;35.25;;;;;16.15;40.36;103315.13;5039419;28;47530;-84
2023/12/17 13:02:37;;;;;;;;;37.00;36.25;;;;;16.16;40.20;103322.28;5057827;28;45368;-78
2023/12/17 13:05:03;;;;;;;;;42.00;35.50;;;;;16.22;40.40;103315.81;5056659;28;45480;-76
2023/12/17 13:07:29;;;;;;;;;46.00;37.50;;;;;16.18;40.32;103293.34;5055502;28;45569;-78
2023/12/17 13:09:54;;;;;;;;;48.00;39.25;;;;;16.24;40.42;103306.75;5055951;28;47889;-80
2023/12/17 13:12:19;;;;;;;;;40.50;37.00;;;;;16.30;40.43;103302.06;5058593;28;46835;-82
2023/12/17 13:14:45;;;;;;;;;38.25;35.00;;;;;16.32;40.03;103294.78;5056395;28;59044;-77
2023/12/17 13:17:11;;;;;;;;;38.50;34.25;;;;;16.32;40.45;103286.66;5056715;28;45564;-83
2023/12/17 13:19:37;;;;;;;;;36.25;33.75;;;;;16.35;40.14;103297.38;5041587;28;46091;-79
2023/12/17 13:22:03;;;;;;;;;38.00;36.00;;;;;16.20;39.93;103275.25;5040965;28;45295;-77
2023/12/17 13:24:29;;;;;;;;;34.00;33.75;;;;;16.31;39.88;103293.91;5059073;28;45368;-80
2023/12/17 13:26:54;;;;;;;;;43.25;36.75;;;;;16.33;40.28;103288.44;5061317;28;45395;-77
2023/12/17 13:29:19;;;;;;;;;36.50;33.00;;;;;16.31;40.08;103293.00;5059891;28;45502;-82
2023/12/17 13:31:45;;;;;;;;;46.50;39.50;;;;;16.30;39.96;103275.88;5067006;28;45373;-79
2023/12/17 13:34:11;;;;;;;;;49.50;38.25;;;;;16.39;39.83;103281.03;5056328;28;45727;-79
2023/12/17 13:36:36;;;;;;;;;39.75;34.50;;;;;16.32;40.03;103274.03;5037412;28;45551;-78
2023/12/17 13:39:01;;;;;;;;;32.50;31.50;;;;;16.31;40.30;103263.25;5055326;28;54707;-78
2023/12/17 13:41:27;;;;;;;;;39.75;35.75;;;;;16.38;40.36;103271.13;5056099;28;45471;-77
2023/12/17 13:43:52;;;;;;;;;40.00;37.75;;;;;16.40;39.76;103260.25;5056019;28;45229;-79
2023/12/17 13:46:18;;;;;;;;;41.00;36.75;;;;;16.46;40.07;103270.88;5055679;28;45170;-78
2023/12/17 13:48:44;;;;;;;;;10.75;7.00;;;;;16.49;39.75;103268.09;5055843;28;46909;-78
2023/12/17 13:51:09;;;;;;;;;38.50;35.00;;;;;16.47;39.99;103253.72;5058160;28;45309;-79
2023/12/17 13:53:34;;;;;;;;;37.00;35.00;;;;;16.45;40.10;103251.03;5059519;28;45296;-75
2023/12/17 13:56:00;;;;;;;;;40.75;36.25;;;;;16.53;40.04;103257.13;5056839;28;45265;-80
2023/12/17 13:58:26;;;;;;;;;45.50;39.00;;;;;16.61;39.49;103248.78;5056285;28;46341;-79
2023/12/17 14:00:52;;;;;;;;;39.00;36.00;;;;;16.74;40.05;103250.19;5052353;28;45494;-78
2023/12/17 14:03:17;;;;;;;;;44.00;37.75;;;;;16.70;40.10;103253.91;5052285;28;45665;-78
2023/12/17 14:05:42;;;;;;;;;39.00;35.75;;;;;16.72;39.95;103237.63;5054867;28;45634;-77
2023/12/17 14:08:07;;;;;;;;;37.75;35.00;;;;;16.81;39.98;103240.91;5053676;28;47016;-76
2023/12/17 14:10:33;;;;;;;;;51.00;39.50;;;;;16.85;39.56;103238.97;5053748;28;49920;-77
2023/12/17 14:13:00;;;;;;;;;46.50;39.50;;;;;16.87;39.58;103223.56;5055840;28;45558;-78
2023/12/17 14:15:25;;;;;;;;;53.25;42.25;;;;;16.87;39.66;103228.97;5057182;28;45552;-76
2023/12/17 14:17:51;;;;;;;;;50.00;41.25;;;;;17.06;39.96;103227.44;5055916;28;46040;-78
2023/12/17 14:20:16;;;;;;;;;42.75;37.00;;;;;17.26;39.30;103232.19;5065197;28;45249;-77
2023/12/17 14:22:41;;;;;;;;;54.00;39.75;;;;;17.48;38.75;103216.94;5061710;28;45544;-81
2023/12/17 14:25:08;;;;;;;;;54.50;43.75;;;;;17.74;38.54;103208.78;5056124;28;45315;-75
2023/12/17 14:27:35;;;;;;;;;47.50;40.25;;;;;18.07;37.85;103206.63;5055333;28;46217;-77
2023/12/17 14:30:01;;;;;;;;;51.25;40.75;;;;;18.35;37.54;103211.88;5038107;28;45755;-80
2023/12/17 14:32:26;;;;;;;;;51.00;42.75;;;;;18.53;37.25;103192.16;5057343;28;45438;-79
2023/12/17 14:34:51;;;;;;;;;54.25;40.25;;;;;18.88;36.54;103212.44;5076101;28;48929;-78
2023/12/17 14:37:17;;;;;;;;;48.75;40.75;;;;;18.91;36.27;103189.69;5075971;28;46073;-82
2023/12/17 14:39:42;;;;;;;;;43.75;36.75;;;;;19.08;36.95;103192.59;5077173;28;45891;-79
2023/12/17 14:42:08;;;;;;;;;47.00;39.50;;;;;19.34;36.21;103205.06;5075489;28;45530;-78
2023/12/17 14:44:34;;;;;;;;;46.25;38.75;;;;;19.37;35.71;103195.88;5057209;28;45511;-76
2023/12/17 14:47:00;;;;;;;;;46.00;39.50;;;;;19.39;35.42;103196.72;5076170;28;45309;-82
2023/12/17 14:49:26;;;;;;;;;49.00;41.25;;;;;19.27;35.83;103193.56;5060738;28;45328;-78
2023/12/17 14:51:52;;;;;;;;;52.75;42.25;;;;;19.20;36.06;103202.97;5058452;28;45467;-79
2023/12/17 14:54:17;;;;;;;;;55.75;44.25;;;;;19.16;36.24;103208.56;5079761;28;45320;-79
2023/12/17 14:56:42;;;;;;;;;50.50;39.75;;;;;18.90;36.11;103186.09;5077475;28;45227;-75
2023/12/17 14:59:08;;;;;;;;;40.00;36.00;;;;;18.85;36.55;103189.97;5057438;28;45282;-76
2023/12/17 15:01:33;;;;;;;;;50.25;38.75;;;;;18.76;36.30;103195.78;5057977;28;45379;-80
2023/12/17 15:03:59;;;;;;;;;48.50;40.00;;;;;18.62;36.30;103199.06;5056812;28;47055;-73
2023/12/17 15:06:24;;;;;;;;;38.50;34.00;;;;;18.53;36.79;103197.59;5058339;28;46074;-75
2023/12/17 15:08:49;;;;;;;;;43.75;37.50;;;;;18.43;36.96;103207.03;5056748;28;45650;-77
2023/12/17 15:11:15;;;;;;;;;38.75;34.50;;;;;18.15;36.98;103200.91;5059886;28;45398;-77
2023/12/17 15:13:41;;;;;;;;;43.75;38.25;;;;;18.05;37.55;103197.66;5054872;28;45332;-74
2023/12/17 15:16:06;;;;;;;;;39.25;37.00;;;;;17.77;37.97;103170.69;5055329;28;46438;-77
2023/12/17 15:18:35;;;;;;;;;45.25;39.50;;;;;17.84;37.72;103195.78;5060693;28;45253;-78
2023/12/17 15:21:05;;;;;;;;;39.75;36.50;;;;;17.69;38.12;103194.47;5046036;28;45344;-78
2023/12/17 15:23:32;;;;;;;;;44.50;40.00;;;;;17.55;38.36;103182.34;5048546;28;46732;-81
2023/12/17 15:25:58;;;;;;;;;45.00;38.75;;;;;17.49;38.74;103188.88;5054574;28;45896;-74
2023/12/17 15:28:24;;;;;;;;;52.00;43.25;;;;;17.34;39.11;103189.44;5074913;28;45249;-78
2023/12/17 15:30:50;;;;;;;;;51.00;42.00;;;;;17.27;39.29;103196.00;5074960;28;45501;-75
2023/12/17 15:33:16;;;;;;;;;47.50;41.25;;;;;17.14;39.60;103183.81;5079104;28;45430;-77
2023/12/17 15:35:44;;;;;;;;;46.75;39.75;;;;;17.11;39.35;103190.22;5078331;28;46098;-76
2023/12/17 15:38:09;;;;;;;;;50.50;42.50;;;;;16.93;39.66;103185.41;5078161;28;45462;-78
2023/12/17 15:40:35;;;;;;;;;54.25;44.25;;;;;16.80;40.18;103181.38;5078358;28;45621;-78
2023/12/17 15:43:00;;;;;;;;;54.75;46.00;;;;;16.67;40.40;103169.16;5078374;28;45552;-78
2023/12/17 15:45:25;;;;;;;;;52.25;43.25;;;;;16.64;40.35;103176.47;5078071;28;46209;-76
2023/12/17 15:47:52;;;;;;;;;52.50;43.25;;;;;16.58;40.85;103189.28;5073074;28;56135;-77
2023/12/17 15:50:17;;;;;;;;;50.25;43.25;;;;;16.60;40.91;103200.94;5045774;28;45478;-76
2023/12/17 15:52:43;;;;;;;;;55.75;44.00;;;;;16.33;41.21;103169.34;5068099;28;45588;-75
2023/12/17 15:55:08;;;;;;;;;57.00;47.25;;;;;16.50;41.15;103194.06;5065450;28;61160;-76
2023/12/17 15:57:33;;;;;;;;;59.00;46.50;;;;;16.39;41.28;103188.09;5070842;28;45572;-76
2023/12/17 16:00:04;;;;;;;;;43.50;37.50;;;;;16.34;41.47;103190.91;5063985;28;45512;-78
2023/12/17 16:02:29;;;;;;;;;44.50;37.25;;;;;16.19;41.79;103181.47;5064746;28;45265;-77
2023/12/17 16:04:55;;;;;;;;;49.75;42.25;;;;;16.22;41.66;103191.31;5065038;28;58897;-77